Terminal Aerodrome Forecast
Issued by NWS Los Angeles, CA

Home | Current Version | Previous Version | Text Only | Print | Product List | Glossary On
Versions: 1 2 3 4 5 6 7 8 9 10 11 12 13 14 15 16 17 18 19 20 21 22 23 24
000
FTUS46 KLOX 031620 AAC
TAFSMX
TAF AMD
KSMX 031620Z 0316/0412 00000KT 6SM BR BKN006
     FM031700 30006KT P6SM SCT007
     FM032000 31012KT P6SM SKC
     FM040300 31006KT P6SM BKN008
     FM040700 VRB03KT 4SM BR OVC005=

USA.gov is the U.S. government's official web portal to all federal, state and local government web resources and services.